sensor_id;sensor_type;location;lat;lon;timestamp;temperature;humidity
19829;DHT22;10075;50.924;4.396;2024-02-26T00:02:15;9.60;99.90
19829;DHT22;10075;50.924;4.396;2024-02-26T00:04:43;9.50;99.90
19829;DHT22;10075;50.924;4.396;2024-02-26T00:07:10;9.50;99.90
19829;DHT22;10075;50.924;4.396;2024-02-26T00:09:37;9.50;99.90
19829;DHT22;10075;50.924;4.396;2024-02-26T00:12:05;9.50;99.90
19829;DHT22;10075;50.924;4.396;2024-02-26T00:14:32;9.50;99.90
19829;DHT22;10075;50.924;4.396;2024-02-26T00:16:59;9.50;99.90
19829;DHT22;10075;50.924;4.396;2024-02-26T00:19:27;9.40;99.90
19829;DHT22;10075;50.924;4.396;2024-02-26T00:21:56;9.30;99.90
19829;DHT22;10075;50.924;4.396;2024-02-26T00:24:22;9.30;99.90
19829;DHT22;10075;50.924;4.396;2024-02-26T00:26:49;9.40;99.90
19829;DHT22;10075;50.924;4.396;2024-02-26T00:29:20;9.40;99.90
19829;DHT22;10075;50.924;4.396;2024-02-26T00:31:47;9.30;99.90
19829;DHT22;10075;50.924;4.396;2024-02-26T00:34:14;9.20;99.90
19829;DHT22;10075;50.924;4.396;2024-02-26T00:36:41;9.30;99.90
19829;DHT22;10075;50.924;4.396;2024-02-26T00:39:09;9.20;99.90
19829;DHT22;10075;50.924;4.396;2024-02-26T00:41:40;9.30;99.90
19829;DHT22;10075;50.924;4.396;2024-02-26T00:44:07;9.30;99.90
19829;DHT22;10075;50.924;4.396;2024-02-26T00:46:34;9.30;99.90
19829;DHT22;10075;50.924;4.396;2024-02-26T00:49:01;9.10;99.90
19829;DHT22;10075;50.924;4.396;2024-02-26T00:51:28;9.00;99.90
19829;DHT22;10075;50.924;4.396;2024-02-26T00:53:55;9.00;99.90
19829;DHT22;10075;50.924;4.396;2024-02-26T00:56:24;9.00;99.90
19829;DHT22;10075;50.924;4.396;2024-02-26T00:58:50;9.10;99.90
19829;DHT22;10075;50.924;4.396;2024-02-26T01:01:18;9.10;99.90
19829;DHT22;10075;50.924;4.396;2024-02-26T01:03:45;9.00;99.90
19829;DHT22;10075;50.924;4.396;2024-02-26T01:06:12;8.90;99.90
19829;DHT22;10075;50.924;4.396;2024-02-26T01:08:39;8.90;99.90
19829;DHT22;10075;50.924;4.396;2024-02-26T01:11:06;8.80;99.90
19829;DHT22;10075;50.924;4.396;2024-02-26T01:13:35;8.90;99.90
19829;DHT22;10075;50.924;4.396;2024-02-26T01:16:02;9.00;99.90
19829;DHT22;10075;50.924;4.396;2024-02-26T01:18:29;9.00;99.90
19829;DHT22;10075;50.924;4.396;2024-02-26T01:20:56;8.90;99.90
19829;DHT22;10075;50.924;4.396;2024-02-26T01:23:23;8.90;99.90
19829;DHT22;10075;50.924;4.396;2024-02-26T01:25:50;8.80;99.90
19829;DHT22;10075;50.924;4.396;2024-02-26T01:28:17;8.80;99.90
19829;DHT22;10075;50.924;4.396;2024-02-26T01:30:45;8.80;99.90
19829;DHT22;10075;50.924;4.396;2024-02-26T01:33:12;8.80;99.90
19829;DHT22;10075;50.924;4.396;2024-02-26T01:35:39;8.80;99.90
19829;DHT22;10075;50.924;4.396;2024-02-26T01:38:06;8.70;99.90
19829;DHT22;10075;50.924;4.396;2024-02-26T01:40:33;8.60;99.90
19829;DHT22;10075;50.924;4.396;2024-02-26T01:43:00;8.70;99.90
19829;DHT22;10075;50.924;4.396;2024-02-26T01:45:27;8.80;99.90
19829;DHT22;10075;50.924;4.396;2024-02-26T01:47:55;8.80;99.90
19829;DHT22;10075;50.924;4.396;2024-02-26T01:50:23;8.80;99.90
19829;DHT22;10075;50.924;4.396;2024-02-26T01:52:51;8.70;99.90
19829;DHT22;10075;50.924;4.396;2024-02-26T01:55:19;8.70;99.90
19829;DHT22;10075;50.924;4.396;2024-02-26T01:57:49;8.80;99.90
19829;DHT22;10075;50.924;4.396;2024-02-26T02:00:17;8.80;99.90
19829;DHT22;10075;50.924;4.396;2024-02-26T02:02:45;8.80;99.90
19829;DHT22;10075;50.924;4.396;2024-02-26T02:05:15;8.70;99.90
19829;DHT22;10075;50.924;4.396;2024-02-26T02:07:43;8.60;99.90
19829;DHT22;10075;50.924;4.396;2024-02-26T02:10:11;8.50;99.90
19829;DHT22;10075;50.924;4.396;2024-02-26T02:12:38;8.40;99.90
19829;DHT22;10075;50.924;4.396;2024-02-26T02:15:06;8.50;99.90
19829;DHT22;10075;50.924;4.396;2024-02-26T02:17:34;8.50;99.90
19829;DHT22;10075;50.924;4.396;2024-02-26T02:20:01;8.60;99.90
19829;DHT22;10075;50.924;4.396;2024-02-26T02:22:30;8.50;99.90
19829;DHT22;10075;50.924;4.396;2024-02-26T02:24:57;8.50;99.90
19829;DHT22;10075;50.924;4.396;2024-02-26T02:27:26;8.60;99.90
19829;DHT22;10075;50.924;4.396;2024-02-26T02:29:53;8.60;99.90
19829;DHT22;10075;50.924;4.396;2024-02-26T02:32:20;8.60;99.90
19829;DHT22;10075;50.924;4.396;2024-02-26T02:34:48;8.60;99.90
19829;DHT22;10075;50.924;4.396;2024-02-26T02:37:15;8.60;99.90
19829;DHT22;10075;50.924;4.396;2024-02-26T02:39:43;8.70;99.90
19829;DHT22;10075;50.924;4.396;2024-02-26T02:42:11;8.70;99.90
19829;DHT22;10075;50.924;4.396;2024-02-26T02:44:38;8.60;99.90
19829;DHT22;10075;50.924;4.396;2024-02-26T02:47:05;8.40;99.90
19829;DHT22;10075;50.924;4.396;2024-02-26T02:49:32;8.40;99.90
19829;DHT22;10075;50.924;4.396;2024-02-26T02:51:59;8.30;99.90
19829;DHT22;10075;50.924;4.396;2024-02-26T02:54:25;8.40;99.90
19829;DHT22;10075;50.924;4.396;2024-02-26T02:56:53;8.50;99.90
19829;DHT22;10075;50.924;4.396;2024-02-26T02:59:20;8.40;99.90
19829;DHT22;10075;50.924;4.396;2024-02-26T03:01:47;8.30;99.90
19829;DHT22;10075;50.924;4.396;2024-02-26T03:04:14;8.30;99.90
19829;DHT22;10075;50.924;4.396;2024-02-26T03:06:41;8.30;99.90
19829;DHT22;10075;50.924;4.396;2024-02-26T03:09:07;8.40;99.90
19829;DHT22;10075;50.924;4.396;2024-02-26T03:11:34;8.50;99.90
19829;DHT22;10075;50.924;4.396;2024-02-26T03:14:03;8.40;99.90
19829;DHT22;10075;50.924;4.396;2024-02-26T03:16:30;8.30;99.90
19829;DHT22;10075;50.924;4.396;2024-02-26T03:18:57;8.30;99.90
19829;DHT22;10075;50.924;4.396;2024-02-26T03:21:24;8.30;99.90
19829;DHT22;10075;50.924;4.396;2024-02-26T03:23:51;8.30;99.90
19829;DHT22;10075;50.924;4.396;2024-02-26T03:26:19;8.20;99.90
19829;DHT22;10075;50.924;4.396;2024-02-26T03:28:45;8.30;99.90
19829;DHT22;10075;50.924;4.396;2024-02-26T03:31:14;8.40;99.90
19829;DHT22;10075;50.924;4.396;2024-02-26T03:33:41;8.30;99.90
19829;DHT22;10075;50.924;4.396;2024-02-26T03:36:08;8.20;99.90
19829;DHT22;10075;50.924;4.396;2024-02-26T03:38:34;8.30;99.90
19829;DHT22;10075;50.924;4.396;2024-02-26T03:41:01;8.10;99.90
19829;DHT22;10075;50.924;4.396;2024-02-26T03:43:27;8.10;99.90
19829;DHT22;10075;50.924;4.396;2024-02-26T03:45:54;8.10;99.90
19829;DHT22;10075;50.924;4.396;2024-02-26T03:48:22;8.10;99.90
19829;DHT22;10075;50.924;4.396;2024-02-26T03:50:49;8.20;99.90
19829;DHT22;10075;50.924;4.396;2024-02-26T03:53:16;8.20;99.90
19829;DHT22;10075;50.924;4.396;2024-02-26T03:55:43;8.20;99.90
19829;DHT22;10075;50.924;4.396;2024-02-26T03:58:12;8.20;99.90
19829;DHT22;10075;50.924;4.396;2024-02-26T04:00:39;8.20;99.90
19829;DHT22;10075;50.924;4.396;2024-02-26T04:03:06;8.20;99.90
19829;DHT22;10075;50.924;4.396;2024-02-26T04:05:34;8.10;99.90
19829;DHT22;10075;50.924;4.396;2024-02-26T04:08:01;8.20;99.90
19829;DHT22;10075;50.924;4.396;2024-02-26T04:10:29;8.20;99.90
19829;DHT22;10075;50.924;4.396;2024-02-26T04:12:56;8.10;99.90
19829;DHT22;10075;50.924;4.396;2024-02-26T04:15:23;8.10;99.90
19829;DHT22;10075;50.924;4.396;2024-02-26T04:17:50;8.10;99.90
19829;DHT22;10075;50.924;4.396;2024-02-26T04:20:17;8.20;99.90
19829;DHT22;10075;50.924;4.396;2024-02-26T04:22:45;8.10;99.90
19829;DHT22;10075;50.924;4.396;2024-02-26T04:25:12;8.20;99.90
19829;DHT22;10075;50.924;4.396;2024-02-26T04:27:39;8.20;99.90
19829;DHT22;10075;50.924;4.396;2024-02-26T04:30:07;8.30;99.90
19829;DHT22;10075;50.924;4.396;2024-02-26T04:32:34;8.20;99.90
19829;DHT22;10075;50.924;4.396;2024-02-26T04:35:01;8.00;99.90
19829;DHT22;10075;50.924;4.396;2024-02-26T04:37:28;8.00;99.90
19829;DHT22;10075;50.924;4.396;2024-02-26T04:39:59;8.00;99.90
19829;DHT22;10075;50.924;4.396;2024-02-26T04:42:27;7.90;99.90
19829;DHT22;10075;50.924;4.396;2024-02-26T04:44:55;7.90;99.90
19829;DHT22;10075;50.924;4.396;2024-02-26T04:47:21;7.90;99.90
19829;DHT22;10075;50.924;4.396;2024-02-26T04:49:49;8.00;99.90
19829;DHT22;10075;50.924;4.396;2024-02-26T04:52:16;7.90;99.90
19829;DHT22;10075;50.924;4.396;2024-02-26T04:54:43;7.90;99.90
19829;DHT22;10075;50.924;4.396;2024-02-26T04:57:11;8.00;99.90
19829;DHT22;10075;50.924;4.396;2024-02-26T04:59:38;8.10;99.90
19829;DHT22;10075;50.924;4.396;2024-02-26T05:02:06;8.00;99.90
19829;DHT22;10075;50.924;4.396;2024-02-26T05:04:33;8.10;99.90
19829;DHT22;10075;50.924;4.396;2024-02-26T05:07:00;8.20;99.90
19829;DHT22;10075;50.924;4.396;2024-02-26T05:09:27;8.10;99.90
19829;DHT22;10075;50.924;4.396;2024-02-26T05:11:54;8.10;99.90
19829;DHT22;10075;50.924;4.396;2024-02-26T05:14:22;8.10;99.90
19829;DHT22;10075;50.924;4.396;2024-02-26T05:16:49;8.20;99.90
19829;DHT22;10075;50.924;4.396;2024-02-26T05:19:16;8.30;99.90
19829;DHT22;10075;50.924;4.396;2024-02-26T05:21:43;8.30;99.90
19829;DHT22;10075;50.924;4.396;2024-02-26T05:24:10;8.20;99.90
19829;DHT22;10075;50.924;4.396;2024-02-26T05:26:37;8.10;99.90
19829;DHT22;10075;50.924;4.396;2024-02-26T05:29:04;8.10;99.90
19829;DHT22;10075;50.924;4.396;2024-02-26T05:31:33;8.00;99.90
19829;DHT22;10075;50.924;4.396;2024-02-26T05:33:59;7.80;99.90
19829;DHT22;10075;50.924;4.396;2024-02-26T05:36:26;7.70;99.90
19829;DHT22;10075;50.924;4.396;2024-02-26T05:38:58;7.80;99.90
19829;DHT22;10075;50.924;4.396;2024-02-26T05:41:25;7.70;99.90
19829;DHT22;10075;50.924;4.396;2024-02-26T05:43:52;7.80;99.90
19829;DHT22;10075;50.924;4.396;2024-02-26T05:46:19;7.90;99.90
19829;DHT22;10075;50.924;4.396;2024-02-26T05:48:49;8.00;99.90
19829;DHT22;10075;50.924;4.396;2024-02-26T05:51:16;8.00;99.90
19829;DHT22;10075;50.924;4.396;2024-02-26T05:53:43;7.90;99.90
19829;DHT22;10075;50.924;4.396;2024-02-26T05:56:09;7.90;99.90
19829;DHT22;10075;50.924;4.396;2024-02-26T05:58:36;7.70;99.90
19829;DHT22;10075;50.924;4.396;2024-02-26T06:01:03;7.80;99.90
19829;DHT22;10075;50.924;4.396;2024-02-26T06:03:30;7.80;99.90
19829;DHT22;10075;50.924;4.396;2024-02-26T06:05:59;7.80;99.90
19829;DHT22;10075;50.924;4.396;2024-02-26T06:08:26;7.80;99.90
19829;DHT22;10075;50.924;4.396;2024-02-26T06:10:53;7.80;99.90
19829;DHT22;10075;50.924;4.396;2024-02-26T06:13:20;7.80;99.90
19829;DHT22;10075;50.924;4.396;2024-02-26T06:15:47;7.80;99.90
19829;DHT22;10075;50.924;4.396;2024-02-26T06:18:13;7.80;99.90
19829;DHT22;10075;50.924;4.396;2024-02-26T06:20:41;7.70;99.90
19829;DHT22;10075;50.924;4.396;2024-02-26T06:23:09;7.70;99.90
19829;DHT22;10075;50.924;4.396;2024-02-26T06:25:36;7.70;99.90
19829;DHT22;10075;50.924;4.396;2024-02-26T06:28:04;7.70;99.90
19829;DHT22;10075;50.924;4.396;2024-02-26T06:30:31;7.80;99.90
19829;DHT22;10075;50.924;4.396;2024-02-26T06:32:58;7.70;99.90
19829;DHT22;10075;50.924;4.396;2024-02-26T06:35:26;7.80;99.90
19829;DHT22;10075;50.924;4.396;2024-02-26T06:37:53;7.90;99.90
19829;DHT22;10075;50.924;4.396;2024-02-26T06:40:21;7.90;99.90
19829;DHT22;10075;50.924;4.396;2024-02-26T06:42:49;7.90;99.90
19829;DHT22;10075;50.924;4.396;2024-02-26T06:45:16;7.90;99.90
19829;DHT22;10075;50.924;4.396;2024-02-26T06:47:43;7.80;99.90
19829;DHT22;10075;50.924;4.396;2024-02-26T06:50:12;7.80;99.90
19829;DHT22;10075;50.924;4.396;2024-02-26T06:52:39;7.80;99.90
19829;DHT22;10075;50.924;4.396;2024-02-26T06:55:06;7.90;99.90
19829;DHT22;10075;50.924;4.396;2024-02-26T06:57:35;7.80;99.90
19829;DHT22;10075;50.924;4.396;2024-02-26T07:00:03;7.80;99.90
19829;DHT22;10075;50.924;4.396;2024-02-26T07:02:30;7.80;99.90
19829;DHT22;10075;50.924;4.396;2024-02-26T07:04:57;7.80;99.90
19829;DHT22;10075;50.924;4.396;2024-02-26T07:07:24;7.70;99.90
19829;DHT22;10075;50.924;4.396;2024-02-26T07:09:51;7.70;99.90
19829;DHT22;10075;50.924;4.396;2024-02-26T07:12:18;7.70;99.90
19829;DHT22;10075;50.924;4.396;2024-02-26T07:14:48;7.80;99.90
19829;DHT22;10075;50.924;4.396;2024-02-26T07:17:16;7.70;99.90
19829;DHT22;10075;50.924;4.396;2024-02-26T07:19:43;7.80;99.90
19829;DHT22;10075;50.924;4.396;2024-02-26T07:22:10;7.70;99.90
19829;DHT22;10075;50.924;4.396;2024-02-26T07:24:37;7.60;99.90
19829;DHT22;10075;50.924;4.396;2024-02-26T07:27:04;7.70;99.90
19829;DHT22;10075;50.924;4.396;2024-02-26T07:29:31;7.70;99.90
19829;DHT22;10075;50.924;4.396;2024-02-26T07:31:59;7.80;99.90
19829;DHT22;10075;50.924;4.396;2024-02-26T07:34:26;7.80;99.90
19829;DHT22;10075;50.924;4.396;2024-02-26T07:36:55;7.90;99.90
19829;DHT22;10075;50.924;4.396;2024-02-26T07:39:22;7.80;99.90
19829;DHT22;10075;50.924;4.396;2024-02-26T07:41:49;7.80;99.90
19829;DHT22;10075;50.924;4.396;2024-02-26T07:44:18;7.80;99.90
19829;DHT22;10075;50.924;4.396;2024-02-26T07:46:45;7.70;99.90
19829;DHT22;10075;50.924;4.396;2024-02-26T07:49:13;7.70;99.90
19829;DHT22;10075;50.924;4.396;2024-02-26T07:51:40;7.70;99.90
19829;DHT22;10075;50.924;4.396;2024-02-26T07:54:07;7.80;99.90
19829;DHT22;10075;50.924;4.396;2024-02-26T07:56:34;7.90;99.90
19829;DHT22;10075;50.924;4.396;2024-02-26T07:59:01;7.90;99.90
19829;DHT22;10075;50.924;4.396;2024-02-26T08:01:28;7.90;99.90
19829;DHT22;10075;50.924;4.396;2024-02-26T08:03:55;7.90;99.90
19829;DHT22;10075;50.924;4.396;2024-02-26T08:06:23;7.90;99.90
19829;DHT22;10075;50.924;4.396;2024-02-26T08:08:51;7.90;99.90
19829;DHT22;10075;50.924;4.396;2024-02-26T08:11:18;7.90;99.90
19829;DHT22;10075;50.924;4.396;2024-02-26T08:13:45;7.80;99.90
19829;DHT22;10075;50.924;4.396;2024-02-26T08:16:12;7.80;99.90
19829;DHT22;10075;50.924;4.396;2024-02-26T08:18:39;7.80;99.90
19829;DHT22;10075;50.924;4.396;2024-02-26T08:21:06;7.80;99.90
19829;DHT22;10075;50.924;4.396;2024-02-26T08:23:35;7.80;99.90
19829;DHT22;10075;50.924;4.396;2024-02-26T08:26:02;7.70;99.90
19829;DHT22;10075;50.924;4.396;2024-02-26T08:28:32;7.60;99.90
19829;DHT22;10075;50.924;4.396;2024-02-26T08:30:59;7.60;99.90
19829;DHT22;10075;50.924;4.396;2024-02-26T08:33:26;7.50;99.90
19829;DHT22;10075;50.924;4.396;2024-02-26T08:35:53;7.60;99.90
19829;DHT22;10075;50.924;4.396;2024-02-26T08:38:20;7.70;99.90
19829;DHT22;10075;50.924;4.396;2024-02-26T08:40:48;7.70;99.90
19829;DHT22;10075;50.924;4.396;2024-02-26T08:43:17;7.60;99.90
19829;DHT22;10075;50.924;4.396;2024-02-26T08:45:45;7.70;99.90
19829;DHT22;10075;50.924;4.396;2024-02-26T08:48:11;7.60;99.90
19829;DHT22;10075;50.924;4.396;2024-02-26T08:50:38;7.60;99.90
19829;DHT22;10075;50.924;4.396;2024-02-26T08:53:05;7.60;99.90
19829;DHT22;10075;50.924;4.396;2024-02-26T08:55:33;7.80;99.90
19829;DHT22;10075;50.924;4.396;2024-02-26T08:58:01;7.90;99.90
19829;DHT22;10075;50.924;4.396;2024-02-26T09:00:28;7.90;99.90
19829;DHT22;10075;50.924;4.396;2024-02-26T09:02:55;8.00;99.90
19829;DHT22;10075;50.924;4.396;2024-02-26T09:05:22;7.90;99.90
19829;DHT22;10075;50.924;4.396;2024-02-26T09:07:49;7.80;99.90
19829;DHT22;10075;50.924;4.396;2024-02-26T09:10:17;7.90;99.90
19829;DHT22;10075;50.924;4.396;2024-02-26T09:12:44;7.80;99.90
19829;DHT22;10075;50.924;4.396;2024-02-26T09:15:12;7.90;99.90
19829;DHT22;10075;50.924;4.396;2024-02-26T09:17:39;7.90;99.90
19829;DHT22;10075;50.924;4.396;2024-02-26T09:20:07;7.90;99.90
19829;DHT22;10075;50.924;4.396;2024-02-26T09:22:34;7.80;99.90
19829;DHT22;10075;50.924;4.396;2024-02-26T09:25:04;7.70;99.90
19829;DHT22;10075;50.924;4.396;2024-02-26T09:27:31;7.70;99.90
19829;DHT22;10075;50.924;4.396;2024-02-26T09:29:58;7.80;99.90
19829;DHT22;10075;50.924;4.396;2024-02-26T09:32:26;7.90;99.90
19829;DHT22;10075;50.924;4.396;2024-02-26T09:34:53;7.70;99.90
19829;DHT22;10075;50.924;4.396;2024-02-26T09:37:20;7.60;99.90
19829;DHT22;10075;50.924;4.396;2024-02-26T09:39:47;7.60;99.90
19829;DHT22;10075;50.924;4.396;2024-02-26T09:42:15;7.50;99.90
19829;DHT22;10075;50.924;4.396;2024-02-26T09:44:45;7.50;99.90
19829;DHT22;10075;50.924;4.396;2024-02-26T09:47:12;7.60;99.90
19829;DHT22;10075;50.924;4.396;2024-02-26T09:49:44;7.60;99.90
19829;DHT22;10075;50.924;4.396;2024-02-26T09:52:15;7.40;99.90
19829;DHT22;10075;50.924;4.396;2024-02-26T09:54:47;7.40;99.90
19829;DHT22;10075;50.924;4.396;2024-02-26T09:57:15;7.40;99.90
19829;DHT22;10075;50.924;4.396;2024-02-26T09:59:43;7.30;99.90
19829;DHT22;10075;50.924;4.396;2024-02-26T10:02:12;7.20;99.90
19829;DHT22;10075;50.924;4.396;2024-02-26T10:04:40;7.20;99.90
19829;DHT22;10075;50.924;4.396;2024-02-26T10:07:11;7.30;99.90
19829;DHT22;10075;50.924;4.396;2024-02-26T10:09:38;7.50;99.90
19829;DHT22;10075;50.924;4.396;2024-02-26T10:12:09;7.50;99.90
19829;DHT22;10075;50.924;4.396;2024-02-26T10:14:37;7.60;99.90
19829;DHT22;10075;50.924;4.396;2024-02-26T10:17:07;7.60;99.90
19829;DHT22;10075;50.924;4.396;2024-02-26T10:19:35;7.60;99.90
19829;DHT22;10075;50.924;4.396;2024-02-26T10:22:02;7.60;99.90
19829;DHT22;10075;50.924;4.396;2024-02-26T10:24:31;7.60;99.90
19829;DHT22;10075;50.924;4.396;2024-02-26T10:26:59;7.60;99.90
19829;DHT22;10075;50.924;4.396;2024-02-26T10:29:26;7.70;99.90
19829;DHT22;10075;50.924;4.396;2024-02-26T10:31:54;7.70;99.90
19829;DHT22;10075;50.924;4.396;2024-02-26T10:34:21;7.70;99.90
19829;DHT22;10075;50.924;4.396;2024-02-26T10:36:49;7.70;99.90
19829;DHT22;10075;50.924;4.396;2024-02-26T10:39:16;7.70;99.90
19829;DHT22;10075;50.924;4.396;2024-02-26T10:41:45;7.70;99.90
19829;DHT22;10075;50.924;4.396;2024-02-26T10:44:12;7.70;99.90
19829;DHT22;10075;50.924;4.396;2024-02-26T10:46:40;7.60;99.90
19829;DHT22;10075;50.924;4.396;2024-02-26T10:49:13;7.60;99.90
19829;DHT22;10075;50.924;4.396;2024-02-26T10:51:43;7.50;99.90
19829;DHT22;10075;50.924;4.396;2024-02-26T10:54:14;7.50;99.90
19829;DHT22;10075;50.924;4.396;2024-02-26T10:56:44;7.50;99.90
19829;DHT22;10075;50.924;4.396;2024-02-26T10:59:12;7.60;99.90
19829;DHT22;10075;50.924;4.396;2024-02-26T11:01:41;7.60;99.90
19829;DHT22;10075;50.924;4.396;2024-02-26T11:04:12;7.50;99.90
19829;DHT22;10075;50.924;4.396;2024-02-26T11:06:40;7.40;99.90
19829;DHT22;10075;50.924;4.396;2024-02-26T11:09:08;7.20;99.90
19829;DHT22;10075;50.924;4.396;2024-02-26T11:11:38;7.20;99.90
19829;DHT22;10075;50.924;4.396;2024-02-26T11:14:08;7.20;99.90
19829;DHT22;10075;50.924;4.396;2024-02-26T11:16:38;7.30;99.90
19829;DHT22;10075;50.924;4.396;2024-02-26T11:19:07;7.40;99.90
19829;DHT22;10075;50.924;4.396;2024-02-26T11:21:35;7.50;99.90
19829;DHT22;10075;50.924;4.396;2024-02-26T11:24:08;7.50;99.90
19829;DHT22;10075;50.924;4.396;2024-02-26T11:26:39;7.40;99.90
19829;DHT22;10075;50.924;4.396;2024-02-26T11:29:10;7.40;99.90
19829;DHT22;10075;50.924;4.396;2024-02-26T11:31:38;7.30;99.90
19829;DHT22;10075;50.924;4.396;2024-02-26T11:34:07;7.20;99.90
19829;DHT22;10075;50.924;4.396;2024-02-26T11:36:34;7.20;99.90
19829;DHT22;10075;50.924;4.396;2024-02-26T11:39:04;7.10;99.90
19829;DHT22;10075;50.924;4.396;2024-02-26T11:41:31;7.00;99.90
19829;DHT22;10075;50.924;4.396;2024-02-26T11:44:00;7.10;99.90
19829;DHT22;10075;50.924;4.396;2024-02-26T11:46:30;7.20;99.90
19829;DHT22;10075;50.924;4.396;2024-02-26T11:49:02;7.20;99.90
19829;DHT22;10075;50.924;4.396;2024-02-26T11:51:33;7.30;99.90
19829;DHT22;10075;50.924;4.396;2024-02-26T11:54:01;7.20;99.90
19829;DHT22;10075;50.924;4.396;2024-02-26T11:56:28;7.20;99.90
19829;DHT22;10075;50.924;4.396;2024-02-26T11:59:03;7.30;99.90
19829;DHT22;10075;50.924;4.396;2024-02-26T12:01:42;7.40;99.90
19829;DHT22;10075;50.924;4.396;2024-02-26T12:04:14;7.40;99.90
19829;DHT22;10075;50.924;4.396;2024-02-26T12:06:47;7.40;99.90
19829;DHT22;10075;50.924;4.396;2024-02-26T12:09:30;7.40;99.90
19829;DHT22;10075;50.924;4.396;2024-02-26T12:11:58;7.50;99.90
19829;DHT22;10075;50.924;4.396;2024-02-26T12:14:25;7.50;99.90
19829;DHT22;10075;50.924;4.396;2024-02-26T12:16:55;7.60;99.90
19829;DHT22;10075;50.924;4.396;2024-02-26T12:19:24;7.50;99.90
19829;DHT22;10075;50.924;4.396;2024-02-26T12:21:52;7.50;99.90
19829;DHT22;10075;50.924;4.396;2024-02-26T12:24:20;7.50;99.90
19829;DHT22;10075;50.924;4.396;2024-02-26T12:26:48;7.50;99.90
19829;DHT22;10075;50.924;4.396;2024-02-26T12:29:15;7.40;99.90
19829;DHT22;10075;50.924;4.396;2024-02-26T12:31:42;7.30;99.90
19829;DHT22;10075;50.924;4.396;2024-02-26T12:34:10;7.20;99.90
19829;DHT22;10075;50.924;4.396;2024-02-26T12:36:38;7.20;99.90
19829;DHT22;10075;50.924;4.396;2024-02-26T12:39:06;7.30;99.90
19829;DHT22;10075;50.924;4.396;2024-02-26T12:41:35;7.30;99.90
19829;DHT22;10075;50.924;4.396;2024-02-26T12:44:02;7.20;99.90
19829;DHT22;10075;50.924;4.396;2024-02-26T12:46:29;7.10;99.90
19829;DHT22;10075;50.924;4.396;2024-02-26T12:48:56;7.20;99.90
19829;DHT22;10075;50.924;4.396;2024-02-26T12:51:26;7.10;99.90
19829;DHT22;10075;50.924;4.396;2024-02-26T12:53:54;7.10;99.90
19829;DHT22;10075;50.924;4.396;2024-02-26T12:56:22;7.20;99.90
19829;DHT22;10075;50.924;4.396;2024-02-26T12:58:50;7.20;99.90
19829;DHT22;10075;50.924;4.396;2024-02-26T13:01:21;7.20;99.90
19829;DHT22;10075;50.924;4.396;2024-02-26T13:03:50;7.20;99.90
19829;DHT22;10075;50.924;4.396;2024-02-26T13:06:18;7.20;99.90
19829;DHT22;10075;50.924;4.396;2024-02-26T13:08:46;7.20;99.90
19829;DHT22;10075;50.924;4.396;2024-02-26T13:11:13;7.30;99.90
19829;DHT22;10075;50.924;4.396;2024-02-26T13:13:40;7.30;99.90
19829;DHT22;10075;50.924;4.396;2024-02-26T13:16:10;7.30;99.90
19829;DHT22;10075;50.924;4.396;2024-02-26T13:18:40;7.20;99.90
19829;DHT22;10075;50.924;4.396;2024-02-26T13:21:12;7.10;99.90
19829;DHT22;10075;50.924;4.396;2024-02-26T13:23:41;7.20;99.90
19829;DHT22;10075;50.924;4.396;2024-02-26T13:26:12;7.20;99.90
19829;DHT22;10075;50.924;4.396;2024-02-26T13:28:40;7.30;99.90
19829;DHT22;10075;50.924;4.396;2024-02-26T13:31:08;7.30;99.90
19829;DHT22;10075;50.924;4.396;2024-02-26T13:33:35;7.40;99.90
19829;DHT22;10075;50.924;4.396;2024-02-26T13:36:03;7.40;99.90
19829;DHT22;10075;50.924;4.396;2024-02-26T13:38:30;7.50;99.90
19829;DHT22;10075;50.924;4.396;2024-02-26T13:40:57;7.50;99.90
19829;DHT22;10075;50.924;4.396;2024-02-26T13:43:26;7.50;99.90
19829;DHT22;10075;50.924;4.396;2024-02-26T13:45:53;7.50;99.90
19829;DHT22;10075;50.924;4.396;2024-02-26T13:48:19;7.60;99.90
19829;DHT22;10075;50.924;4.396;2024-02-26T13:50:46;7.60;99.90
19829;DHT22;10075;50.924;4.396;2024-02-26T13:53:14;7.50;99.90
19829;DHT22;10075;50.924;4.396;2024-02-26T13:55:41;7.50;99.90
19829;DHT22;10075;50.924;4.396;2024-02-26T13:58:11;7.50;99.90
19829;DHT22;10075;50.924;4.396;2024-02-26T14:00:40;7.50;99.90
19829;DHT22;10075;50.924;4.396;2024-02-26T14:03:08;7.60;99.90
19829;DHT22;10075;50.924;4.396;2024-02-26T14:05:35;7.60;99.90
19829;DHT22;10075;50.924;4.396;2024-02-26T14:08:02;7.60;99.90
19829;DHT22;10075;50.924;4.396;2024-02-26T14:10:29;7.70;99.90
19829;DHT22;10075;50.924;4.396;2024-02-26T14:12:57;7.70;99.90
19829;DHT22;10075;50.924;4.396;2024-02-26T14:15:24;7.70;99.90
19829;DHT22;10075;50.924;4.396;2024-02-26T14:17:53;7.70;99.90
19829;DHT22;10075;50.924;4.396;2024-02-26T14:20:22;7.80;99.90
19829;DHT22;10075;50.924;4.396;2024-02-26T14:22:50;7.70;99.90
19829;DHT22;10075;50.924;4.396;2024-02-26T14:25:18;7.70;99.90
19829;DHT22;10075;50.924;4.396;2024-02-26T14:27:46;7.70;99.90
19829;DHT22;10075;50.924;4.396;2024-02-26T14:30:14;7.60;99.90
19829;DHT22;10075;50.924;4.396;2024-02-26T14:32:41;7.60;99.90
19829;DHT22;10075;50.924;4.396;2024-02-26T14:35:10;7.60;99.90
19829;DHT22;10075;50.924;4.396;2024-02-26T14:37:37;7.50;99.90
19829;DHT22;10075;50.924;4.396;2024-02-26T14:40:05;7.60;99.90
19829;DHT22;10075;50.924;4.396;2024-02-26T14:42:33;7.70;99.90
19829;DHT22;10075;50.924;4.396;2024-02-26T14:45:00;7.70;99.90
19829;DHT22;10075;50.924;4.396;2024-02-26T14:47:27;7.80;99.90
19829;DHT22;10075;50.924;4.396;2024-02-26T14:49:54;7.80;99.90
19829;DHT22;10075;50.924;4.396;2024-02-26T14:52:22;7.80;99.90
19829;DHT22;10075;50.924;4.396;2024-02-26T14:54:49;7.80;99.90
19829;DHT22;10075;50.924;4.396;2024-02-26T14:57:17;7.80;99.90
19829;DHT22;10075;50.924;4.396;2024-02-26T14:59:44;7.80;99.90
19829;DHT22;10075;50.924;4.396;2024-02-26T15:02:11;7.80;99.90
19829;DHT22;10075;50.924;4.396;2024-02-26T15:04:38;7.80;99.90
19829;DHT22;10075;50.924;4.396;2024-02-26T15:07:05;7.80;99.90
19829;DHT22;10075;50.924;4.396;2024-02-26T15:09:33;7.80;99.90
19829;DHT22;10075;50.924;4.396;2024-02-26T15:12:01;7.80;99.90
19829;DHT22;10075;50.924;4.396;2024-02-26T15:14:28;7.80;99.90
19829;DHT22;10075;50.924;4.396;2024-02-26T15:16:55;7.80;99.90
19829;DHT22;10075;50.924;4.396;2024-02-26T15:19:22;7.80;99.90
19829;DHT22;10075;50.924;4.396;2024-02-26T15:21:49;7.80;99.90
19829;DHT22;10075;50.924;4.396;2024-02-26T15:24:16;7.70;99.90
19829;DHT22;10075;50.924;4.396;2024-02-26T15:26:44;7.70;99.90
19829;DHT22;10075;50.924;4.396;2024-02-26T15:29:12;7.70;99.90
19829;DHT22;10075;50.924;4.396;2024-02-26T15:31:39;7.70;99.90
19829;DHT22;10075;50.924;4.396;2024-02-26T15:34:06;7.70;99.90
19829;DHT22;10075;50.924;4.396;2024-02-26T15:36:34;7.60;99.90
19829;DHT22;10075;50.924;4.396;2024-02-26T15:39:01;7.60;99.90
19829;DHT22;10075;50.924;4.396;2024-02-26T15:41:28;7.60;99.90
19829;DHT22;10075;50.924;4.396;2024-02-26T15:43:57;7.70;99.90
19829;DHT22;10075;50.924;4.396;2024-02-26T15:46:26;7.70;99.90
19829;DHT22;10075;50.924;4.396;2024-02-26T15:48:53;7.70;99.90